Terminal Aerodrome Forecast
Issued by NWS

Home | Current Version | Previous Version | Text Only | Print | Product List | Glossary On
Versions: 1 2 3 4 5 6 7 8 9 10 11 12 13 14
000
FTUS46 KLOX 242300
TAFOXR
TAF
KOXR 242326Z 2500/2524 06020G30KT P6SM SKC
     FM250200 06015G22KT P6SM SKC
     FM250600 06012KT P6SM SKC
     FM251300 08015G25KT P6SM SKC
     FM252200 08010KT P6SM SKC=

USA.gov is the U.S. government's official web portal to all federal, state and local government web resources and services.